Terminal Aerodrome Forecast
Issued by NWS

Home | Current Version | Previous Version | Text Only | Print | Product List | Glossary On
Versions: 1 2 3 4 5 6 7 8 9 10 11 12 13 14 15 16 17 18 19 20
276
FTUS41 KPBZ 192332
TAFAGC
TAF
KAGC 192332Z 2000/2024 15005KT P6SM SCT050 BKN120
     FM200500 00000KT P6SM SKC
     FM200800 00000KT 2SM BR SCT250
      TEMPO 2009/2012 3/4SM BR BKN003
     FM201300 00000KT 3SM BR SCT003
     FM201400 VRB03KT P6SM SCT250=

USA.gov is the U.S. government's official web portal to all federal, state and local government web resources and services.